createdAt,value
2022-10-21T00:04:08.531Z,24.30
2022-10-21T00:10:22.498Z,24.40
2022-10-21T00:16:40.544Z,24.30
2022-10-21T00:22:58.684Z,24.30
2022-10-21T00:29:14.644Z,24.30
2022-10-21T00:35:31.964Z,24.20
2022-10-21T00:41:45.618Z,24.20
2022-10-21T00:48:06.120Z,24.20
2022-10-21T00:54:24.261Z,24.10
2022-10-21T01:00:42.473Z,24.10
2022-10-21T01:06:53.750Z,24.10
2022-10-21T01:13:13.655Z,24.10
2022-10-21T01:19:47.197Z,24.00
2022-10-21T01:26:26.976Z,24.00
2022-10-21T01:32:48.271Z,23.90
2022-10-21T01:39:06.890Z,24.00
2022-10-21T01:45:28.794Z,23.90
2022-10-21T01:51:42.467Z,23.90
2022-10-21T01:57:59.766Z,23.80
2022-10-21T02:04:18.270Z,23.80
2022-10-21T02:10:34.179Z,23.80
2022-10-21T02:16:50.726Z,23.70
2022-10-21T02:23:10.171Z,23.70
2022-10-21T02:29:28.276Z,23.70
2022-10-21T02:35:45.022Z,23.70
2022-10-21T02:41:57.288Z,23.70
2022-10-21T02:48:18.325Z,23.60
2022-10-21T02:54:32.900Z,23.60
2022-10-21T03:00:50.289Z,23.50
2022-10-21T03:07:04.137Z,23.60
2022-10-21T03:13:16.870Z,23.50
2022-10-21T03:19:35.965Z,23.50
2022-10-21T03:25:52.027Z,23.40
2022-10-21T03:32:07.948Z,23.50
2022-10-21T03:38:25.276Z,23.50
2022-10-21T03:44:44.764Z,23.40
2022-10-21T03:50:56.758Z,23.40
2022-10-21T03:57:13.828Z,23.40
2022-10-21T04:03:31.712Z,23.40
2022-10-21T04:09:46.182Z,23.30
2022-10-21T04:16:07.668Z,23.30
2022-10-21T04:22:22.350Z,23.30
2022-10-21T04:28:39.863Z,23.40
2022-10-21T04:34:56.663Z,23.60
2022-10-21T04:41:08.695Z,23.80
2022-10-21T04:47:24.812Z,24.00
2022-10-21T04:53:36.615Z,24.30
2022-10-21T04:59:52.506Z,24.50
2022-10-21T05:06:08.132Z,24.50
2022-10-21T05:12:26.405Z,24.10
2022-10-21T05:18:40.841Z,24.20
2022-10-21T05:24:56.234Z,24.40
2022-10-21T05:31:09.693Z,24.60
2022-10-21T05:37:25.977Z,24.60
2022-10-21T05:43:42.369Z,24.40
2022-10-21T05:49:53.856Z,24.30
2022-10-21T05:56:09.185Z,24.50
2022-10-21T06:02:20.235Z,24.70
2022-10-21T06:08:33.928Z,24.60
2022-10-21T06:14:52.024Z,24.30
2022-10-21T06:21:06.688Z,24.10
2022-10-21T06:27:20.213Z,24.40
2022-10-21T06:33:33.866Z,24.60
2022-10-21T06:39:48.730Z,24.40
2022-10-21T06:46:05.806Z,24.10
2022-10-21T06:52:15.522Z,24.00
2022-10-21T06:58:27.018Z,24.30
2022-10-21T07:04:40.866Z,24.40
2022-10-21T07:10:53.151Z,24.20
2022-10-21T07:17:08.879Z,24.00
2022-10-21T07:23:23.798Z,24.20
2022-10-21T07:29:36.403Z,24.40
2022-10-21T07:35:50.858Z,24.60
2022-10-21T07:42:05.565Z,24.40
2022-10-21T07:48:19.270Z,24.10
2022-10-21T07:54:33.454Z,24.20
2022-10-21T08:00:46.075Z,24.50
2022-10-21T08:06:55.839Z,24.40
2022-10-21T08:13:10.446Z,24.10
2022-10-21T08:19:30.201Z,23.90
2022-10-21T08:25:47.337Z,23.80
2022-10-21T08:32:04.098Z,23.70
2022-10-21T08:38:15.704Z,23.60
2022-10-21T08:44:36.899Z,23.60
2022-10-21T08:50:52.422Z,23.60
2022-10-21T08:57:09.351Z,23.50
2022-10-21T09:03:32.714Z,23.50
2022-10-21T09:09:49.017Z,23.40
2022-10-21T09:16:04.414Z,23.40
2022-10-21T09:22:34.680Z,23.30
2022-10-21T09:28:37.776Z,23.30
2022-10-21T09:34:54.791Z,23.20
2022-10-21T09:41:13.548Z,23.10
2022-10-21T09:47:31.700Z,23.10
2022-10-21T09:53:54.018Z,23.10
2022-10-21T10:00:04.607Z,23.00
2022-10-21T10:06:16.202Z,23.00
2022-10-21T10:12:32.036Z,23.00
2022-10-21T10:18:44.193Z,22.90
2022-10-21T10:24:58.657Z,22.80
2022-10-21T10:31:12.270Z,22.80
2022-10-21T10:37:26.553Z,22.80
2022-10-21T10:43:38.296Z,22.70
2022-10-21T10:49:53.962Z,22.70
2022-10-21T10:56:09.066Z,22.60
2022-10-21T11:02:43.280Z,22.60
2022-10-21T11:08:56.497Z,22.60
2022-10-21T11:15:10.721Z,22.50
2022-10-21T11:21:32.458Z,22.50
2022-10-21T11:28:11.656Z,22.50
2022-10-21T11:34:27.399Z,22.40
2022-10-21T11:40:40.929Z,22.50
2022-10-21T11:47:10.525Z,22.90
2022-10-21T11:53:39.672Z,23.20
2022-10-21T12:00:00.771Z,23.50
2022-10-21T12:06:18.887Z,23.80
2022-10-21T12:12:35.416Z,23.60
2022-10-21T12:18:53.670Z,23.50
2022-10-21T12:25:13.213Z,23.70
2022-10-21T12:31:35.088Z,24.00
2022-10-21T12:38:29.707Z,24.10
2022-10-21T12:51:05.924Z,23.50
2022-10-21T12:57:22.013Z,23.60
2022-10-21T13:03:58.797Z,24.00
2022-10-21T13:10:34.809Z,24.10
2022-10-21T13:16:52.404Z,23.90
2022-10-21T13:23:07.936Z,23.70
2022-10-21T13:29:28.500Z,23.60
2022-10-21T13:36:01.325Z,23.60
2022-10-21T13:42:17.338Z,24.10
2022-10-21T13:48:31.937Z,24.40
2022-10-21T13:54:49.618Z,24.30
2022-10-21T14:01:05.952Z,24.40
2022-10-21T14:07:23.145Z,24.40
2022-10-21T14:13:45.574Z,24.40
2022-10-21T14:20:04.271Z,24.40
2022-10-21T14:26:20.439Z,24.30
2022-10-21T14:32:32.842Z,24.70
2022-10-21T14:38:49.606Z,25.00
2022-10-21T14:45:10.868Z,25.00
2022-10-21T14:51:29.220Z,25.00
2022-10-21T14:57:54.757Z,24.90
2022-10-21T15:04:12.409Z,25.10
2022-10-21T15:10:30.572Z,25.20
2022-10-21T15:16:51.197Z,25.30
2022-10-21T15:23:02.516Z,25.20
2022-10-21T15:29:27.421Z,25.20
2022-10-21T15:35:42.600Z,25.30
2022-10-21T15:42:01.550Z,25.30
2022-10-21T15:48:17.362Z,25.30
2022-10-21T15:54:34.355Z,25.50
2022-10-21T16:00:50.967Z,25.40
2022-10-21T16:07:00.777Z,25.30
2022-10-21T16:13:14.526Z,25.20
2022-10-21T16:19:28.829Z,25.20
2022-10-21T16:25:46.352Z,25.30
2022-10-21T16:32:06.770Z,25.30
2022-10-21T16:38:23.230Z,25.20
2022-10-21T16:44:33.529Z,25.30
2022-10-21T16:50:50.167Z,25.30
2022-10-21T16:57:06.153Z,25.50
2022-10-21T17:03:19.672Z,25.30
2022-10-21T17:09:37.590Z,25.20
2022-10-21T17:15:54.222Z,25.20
2022-10-21T17:22:04.142Z,25.20
2022-10-21T17:28:22.477Z,25.30
2022-10-21T17:34:42.234Z,25.20
2022-10-21T17:40:55.517Z,25.10
2022-10-21T17:47:11.101Z,25.20
2022-10-21T17:53:22.961Z,25.20
2022-10-21T17:59:41.113Z,25.20
2022-10-21T18:05:54.187Z,25.10
2022-10-21T18:12:09.963Z,25.10
2022-10-21T18:18:21.372Z,25.10
2022-10-21T18:24:38.078Z,25.20
2022-10-21T18:30:52.058Z,25.10
2022-10-21T18:37:07.627Z,24.90
2022-10-21T18:43:25.529Z,24.90
2022-10-21T18:49:39.279Z,24.80
2022-10-21T18:55:52.514Z,24.90
2022-10-21T19:02:05.802Z,24.90
2022-10-21T19:08:19.197Z,24.80
2022-10-21T19:14:36.246Z,24.80
2022-10-21T19:20:53.179Z,24.80
2022-10-21T19:27:02.322Z,24.80
2022-10-21T19:33:14.312Z,24.70
2022-10-21T19:39:30.191Z,24.70
2022-10-21T19:45:48.478Z,24.70
2022-10-21T19:52:04.247Z,24.70
2022-10-21T19:58:14.788Z,24.60
2022-10-21T20:04:32.556Z,24.60
2022-10-21T20:10:48.324Z,24.50
2022-10-21T20:17:04.279Z,24.50
2022-10-21T20:23:21.421Z,24.40
2022-10-21T20:29:36.557Z,24.40
2022-10-21T20:35:50.805Z,24.40
2022-10-21T20:42:11.891Z,24.30
2022-10-21T20:48:29.427Z,24.20
2022-10-21T20:54:46.418Z,24.30
2022-10-21T21:01:02.266Z,24.20
2022-10-21T21:07:21.304Z,24.10
2022-10-21T21:13:34.593Z,24.10
2022-10-21T21:19:51.967Z,24.10
2022-10-21T21:26:15.471Z,24.10
2022-10-21T21:32:32.919Z,24.10
2022-10-21T21:38:51.886Z,24.00
2022-10-21T21:45:08.594Z,24.10
2022-10-21T21:51:16.394Z,24.40
2022-10-21T21:57:33.560Z,24.40
2022-10-21T22:03:47.935Z,24.30
2022-10-21T22:10:05.485Z,24.10
2022-10-21T22:16:25.761Z,24.10
2022-10-21T22:22:41.638Z,24.00
2022-10-21T22:28:59.489Z,23.90
2022-10-21T22:35:20.003Z,23.80
2022-10-21T22:41:38.245Z,23.80
2022-10-21T22:47:51.670Z,23.80
2022-10-21T22:54:19.139Z,23.90
2022-10-21T23:00:29.996Z,23.80
2022-10-21T23:13:06.498Z,23.90
2022-10-21T23:19:18.914Z,24.40
2022-10-21T23:25:36.062Z,24.70
2022-10-21T23:31:48.324Z,24.60
2022-10-21T23:38:00.447Z,24.40
2022-10-21T23:44:17.867Z,24.20
2022-10-21T23:50:33.786Z,24.20
2022-10-21T23:56:49.691Z,24.20
